sensor_id;sensor_type;location;lat;lon;timestamp;pressure;altitude;pressure_sealevel;temperature;humidity
15477;BME280;7840;42.702;23.296;2023-10-09T00:00:14;95560.09;;;18.48;93.31
15477;BME280;7840;42.702;23.296;2023-10-09T00:02:59;95558.75;;;18.45;93.24
15477;BME280;7840;42.702;23.296;2023-10-09T00:05:27;95553.72;;;18.39;94.27
15477;BME280;7840;42.702;23.296;2023-10-09T00:08:07;95552.38;;;18.41;93.78
15477;BME280;7840;42.702;23.296;2023-10-09T00:10:37;95554.00;;;18.37;94.29
15477;BME280;7840;42.702;23.296;2023-10-09T00:13:15;95560.75;;;18.35;93.54
15477;BME280;7840;42.702;23.296;2023-10-09T00:15:43;95552.53;;;18.26;94.73
15477;BME280;7840;42.702;23.296;2023-10-09T00:18:18;95557.13;;;18.20;95.00
15477;BME280;7840;42.702;23.296;2023-10-09T00:20:54;95557.34;;;18.24;94.77
15477;BME280;7840;42.702;23.296;2023-10-09T00:23:27;95558.59;;;18.08;95.93
15477;BME280;7840;42.702;23.296;2023-10-09T00:25:57;95555.41;;;18.06;96.34
15477;BME280;7840;42.702;23.296;2023-10-09T00:28:37;95563.47;;;18.00;95.78
15477;BME280;7840;42.702;23.296;2023-10-09T00:31:07;95553.88;;;17.94;96.13
15477;BME280;7840;42.702;23.296;2023-10-09T00:33:41;95547.75;;;17.89;97.13
15477;BME280;7840;42.702;23.296;2023-10-09T00:36:11;95542.56;;;17.97;96.57
15477;BME280;7840;42.702;23.296;2023-10-09T00:38:42;95558.25;;;17.85;96.86
15477;BME280;7840;42.702;23.296;2023-10-09T00:41:15;95563.97;;;17.63;98.65
15477;BME280;7840;42.702;23.296;2023-10-09T00:43:46;95549.56;;;17.59;98.76
15477;BME280;7840;42.702;23.296;2023-10-09T00:46:17;95549.84;;;17.58;99.56
15477;BME280;7840;42.702;23.296;2023-10-09T00:48:53;95545.94;;;17.40;100.00
15477;BME280;7840;42.702;23.296;2023-10-09T00:51:23;95546.50;;;17.37;100.00
15477;BME280;7840;42.702;23.296;2023-10-09T00:53:57;95561.53;;;17.28;100.00
15477;BME280;7840;42.702;23.296;2023-10-09T00:56:26;95557.56;;;17.15;100.00
15477;BME280;7840;42.702;23.296;2023-10-09T00:59:05;95559.00;;;17.02;100.00
15477;BME280;7840;42.702;23.296;2023-10-09T01:01:41;95560.63;;;16.93;100.00
15477;BME280;7840;42.702;23.296;2023-10-09T01:04:14;95552.38;;;16.84;100.00
15477;BME280;7840;42.702;23.296;2023-10-09T01:06:45;95562.28;;;16.84;100.00
15477;BME280;7840;42.702;23.296;2023-10-09T01:09:21;95571.91;;;16.80;100.00
15477;BME280;7840;42.702;23.296;2023-10-09T01:11:49;95577.31;;;16.70;100.00
15477;BME280;7840;42.702;23.296;2023-10-09T01:14:30;95591.47;;;16.65;100.00
15477;BME280;7840;42.702;23.296;2023-10-09T01:17:02;95599.50;;;16.60;100.00
15477;BME280;7840;42.702;23.296;2023-10-09T01:19:33;95589.88;;;16.54;100.00
15477;BME280;7840;42.702;23.296;2023-10-09T01:22:00;95599.53;;;16.55;100.00
15477;BME280;7840;42.702;23.296;2023-10-09T01:24:32;95578.69;;;16.31;100.00
15477;BME280;7840;42.702;23.296;2023-10-09T01:27:05;95586.47;;;16.28;100.00
15477;BME280;7840;42.702;23.296;2023-10-09T01:29:41;95593.41;;;16.29;100.00
15477;BME280;7840;42.702;23.296;2023-10-09T01:32:10;95616.94;;;16.22;100.00
15477;BME280;7840;42.702;23.296;2023-10-09T01:34:43;95621.50;;;16.16;100.00
15477;BME280;7840;42.702;23.296;2023-10-09T01:37:16;95628.97;;;16.14;100.00
15477;BME280;7840;42.702;23.296;2023-10-09T01:39:46;95624.72;;;16.13;100.00
15477;BME280;7840;42.702;23.296;2023-10-09T01:42:15;95622.28;;;16.11;100.00
15477;BME280;7840;42.702;23.296;2023-10-09T01:44:51;95618.28;;;16.04;100.00
15477;BME280;7840;42.702;23.296;2023-10-09T01:47:19;95620.94;;;15.99;100.00
15477;BME280;7840;42.702;23.296;2023-10-09T01:49:48;95629.50;;;15.91;100.00
15477;BME280;7840;42.702;23.296;2023-10-09T01:52:16;95652.47;;;15.81;100.00
15477;BME280;7840;42.702;23.296;2023-10-09T01:54:47;95647.66;;;15.73;100.00
15477;BME280;7840;42.702;23.296;2023-10-09T01:57:16;95633.22;;;15.74;100.00
15477;BME280;7840;42.702;23.296;2023-10-09T01:59:49;95635.34;;;15.82;100.00
15477;BME280;7840;42.702;23.296;2023-10-09T02:02:19;95646.56;;;15.69;100.00
15477;BME280;7840;42.702;23.296;2023-10-09T02:04:53;95669.00;;;15.68;100.00
15477;BME280;7840;42.702;23.296;2023-10-09T02:07:33;95681.72;;;15.51;100.00
15477;BME280;7840;42.702;23.296;2023-10-09T02:10:08;95690.34;;;15.63;100.00
15477;BME280;7840;42.702;23.296;2023-10-09T02:12:47;95682.72;;;15.29;100.00
15477;BME280;7840;42.702;23.296;2023-10-09T02:15:20;95675.25;;;15.26;100.00
15477;BME280;7840;42.702;23.296;2023-10-09T02:18:06;95670.59;;;15.07;100.00
15477;BME280;7840;42.702;23.296;2023-10-09T02:20:45;95671.09;;;14.98;100.00
15477;BME280;7840;42.702;23.296;2023-10-09T02:23:13;95676.09;;;14.85;100.00
15477;BME280;7840;42.702;23.296;2023-10-09T02:25:44;95666.44;;;14.73;100.00
15477;BME280;7840;42.702;23.296;2023-10-09T02:28:13;95664.28;;;14.70;100.00
15477;BME280;7840;42.702;23.296;2023-10-09T02:30:45;95669.53;;;14.60;100.00
15477;BME280;7840;42.702;23.296;2023-10-09T02:33:14;95671.88;;;14.52;100.00
15477;BME280;7840;42.702;23.296;2023-10-09T02:35:47;95682.03;;;14.55;100.00
15477;BME280;7840;42.702;23.296;2023-10-09T02:38:17;95691.41;;;14.57;100.00
15477;BME280;7840;42.702;23.296;2023-10-09T02:40:58;95697.78;;;14.56;100.00
15477;BME280;7840;42.702;23.296;2023-10-09T02:43:44;95705.69;;;14.46;100.00
15477;BME280;7840;42.702;23.296;2023-10-09T02:46:13;95716.28;;;14.41;100.00
15477;BME280;7840;42.702;23.296;2023-10-09T02:48:44;95717.47;;;14.50;100.00
15477;BME280;7840;42.702;23.296;2023-10-09T02:51:18;95715.34;;;14.52;100.00
15477;BME280;7840;42.702;23.296;2023-10-09T02:53:59;95717.06;;;14.36;100.00
15477;BME280;7840;42.702;23.296;2023-10-09T02:56:35;95712.00;;;14.35;100.00
15477;BME280;7840;42.702;23.296;2023-10-09T02:59:09;95722.38;;;14.36;100.00
15477;BME280;7840;42.702;23.296;2023-10-09T03:01:37;95717.16;;;14.19;100.00
15477;BME280;7840;42.702;23.296;2023-10-09T03:04:05;95713.97;;;14.17;100.00
15477;BME280;7840;42.702;23.296;2023-10-09T03:06:37;95715.47;;;14.08;100.00
15477;BME280;7840;42.702;23.296;2023-10-09T03:09:09;95708.97;;;13.94;100.00
15477;BME280;7840;42.702;23.296;2023-10-09T03:11:45;95719.50;;;14.11;100.00
15477;BME280;7840;42.702;23.296;2023-10-09T03:14:19;95728.63;;;13.93;100.00
15477;BME280;7840;42.702;23.296;2023-10-09T03:16:47;95732.16;;;13.99;100.00
15477;BME280;7840;42.702;23.296;2023-10-09T03:19:15;95738.25;;;13.94;100.00
15477;BME280;7840;42.702;23.296;2023-10-09T03:21:43;95734.34;;;14.07;100.00
15477;BME280;7840;42.702;23.296;2023-10-09T03:24:11;95749.00;;;14.04;100.00
15477;BME280;7840;42.702;23.296;2023-10-09T03:26:39;95750.50;;;13.95;100.00
15477;BME280;7840;42.702;23.296;2023-10-09T03:29:08;95751.06;;;13.97;100.00
15477;BME280;7840;42.702;23.296;2023-10-09T03:31:36;95757.28;;;13.81;100.00
15477;BME280;7840;42.702;23.296;2023-10-09T03:34:04;95749.22;;;13.76;100.00
15477;BME280;7840;42.702;23.296;2023-10-09T03:36:32;95756.88;;;13.67;100.00
15477;BME280;7840;42.702;23.296;2023-10-09T03:39:04;95758.03;;;13.54;100.00
15477;BME280;7840;42.702;23.296;2023-10-09T03:41:44;95754.69;;;13.42;100.00
15477;BME280;7840;42.702;23.296;2023-10-09T03:44:14;95755.19;;;13.39;100.00
15477;BME280;7840;42.702;23.296;2023-10-09T03:46:44;95764.03;;;13.45;100.00
15477;BME280;7840;42.702;23.296;2023-10-09T03:49:12;95754.75;;;13.47;100.00
15477;BME280;7840;42.702;23.296;2023-10-09T03:51:49;95762.25;;;13.50;100.00
15477;BME280;7840;42.702;23.296;2023-10-09T03:54:17;95770.97;;;13.46;100.00
15477;BME280;7840;42.702;23.296;2023-10-09T03:56:46;95780.50;;;13.41;100.00
15477;BME280;7840;42.702;23.296;2023-10-09T03:59:17;95777.09;;;13.46;100.00
15477;BME280;7840;42.702;23.296;2023-10-09T04:01:46;95777.31;;;13.23;100.00
15477;BME280;7840;42.702;23.296;2023-10-09T04:04:14;95774.97;;;13.09;100.00
15477;BME280;7840;42.702;23.296;2023-10-09T04:06:42;95777.50;;;12.99;100.00
15477;BME280;7840;42.702;23.296;2023-10-09T04:09:10;95774.34;;;13.02;100.00
15477;BME280;7840;42.702;23.296;2023-10-09T04:11:57;95771.63;;;12.97;100.00
15477;BME280;7840;42.702;23.296;2023-10-09T04:14:46;95771.53;;;12.92;100.00
15477;BME280;7840;42.702;23.296;2023-10-09T04:17:24;95768.63;;;12.94;100.00
15477;BME280;7840;42.702;23.296;2023-10-09T04:20:00;95771.22;;;12.88;100.00
15477;BME280;7840;42.702;23.296;2023-10-09T04:22:45;95775.72;;;12.88;100.00
15477;BME280;7840;42.702;23.296;2023-10-09T04:25:17;95782.50;;;12.79;100.00
15477;BME280;7840;42.702;23.296;2023-10-09T04:27:52;95787.97;;;12.89;100.00
15477;BME280;7840;42.702;23.296;2023-10-09T04:30:28;95791.28;;;12.79;100.00
15477;BME280;7840;42.702;23.296;2023-10-09T04:32:55;95791.03;;;12.81;100.00
15477;BME280;7840;42.702;23.296;2023-10-09T04:35:30;95790.63;;;12.55;100.00
15477;BME280;7840;42.702;23.296;2023-10-09T04:37:57;95781.06;;;12.54;100.00
15477;BME280;7840;42.702;23.296;2023-10-09T04:40:31;95784.19;;;12.51;100.00
15477;BME280;7840;42.702;23.296;2023-10-09T04:43:17;95778.34;;;12.49;100.00
15477;BME280;7840;42.702;23.296;2023-10-09T04:45:48;95790.72;;;12.60;100.00
15477;BME280;7840;42.702;23.296;2023-10-09T04:48:34;95794.19;;;12.61;100.00
15477;BME280;7840;42.702;23.296;2023-10-09T04:51:04;95803.13;;;12.72;100.00
15477;BME280;7840;42.702;23.296;2023-10-09T04:53:47;95796.69;;;12.84;100.00
15477;BME280;7840;42.702;23.296;2023-10-09T04:56:26;95790.56;;;12.84;100.00
15477;BME280;7840;42.702;23.296;2023-10-09T04:58:58;95800.72;;;12.87;100.00
15477;BME280;7840;42.702;23.296;2023-10-09T05:01:35;95796.44;;;12.86;100.00
15477;BME280;7840;42.702;23.296;2023-10-09T05:04:09;95800.31;;;12.78;100.00
15477;BME280;7840;42.702;23.296;2023-10-09T05:06:54;95801.59;;;12.76;100.00
15477;BME280;7840;42.702;23.296;2023-10-09T05:09:22;95819.19;;;12.77;100.00
15477;BME280;7840;42.702;23.296;2023-10-09T05:11:50;95811.09;;;12.72;100.00
15477;BME280;7840;42.702;23.296;2023-10-09T05:14:41;95813.13;;;12.65;100.00
15477;BME280;7840;42.702;23.296;2023-10-09T05:17:30;95819.66;;;12.57;100.00
15477;BME280;7840;42.702;23.296;2023-10-09T05:20:00;95813.13;;;12.65;100.00
15477;BME280;7840;42.702;23.296;2023-10-09T05:22:45;95808.13;;;12.68;100.00
15477;BME280;7840;42.702;23.296;2023-10-09T05:25:24;95819.88;;;12.72;100.00
15477;BME280;7840;42.702;23.296;2023-10-09T05:28:05;95820.53;;;12.79;100.00
15477;BME280;7840;42.702;23.296;2023-10-09T05:30:47;95825.03;;;12.96;100.00
15477;BME280;7840;42.702;23.296;2023-10-09T05:33:22;95839.72;;;12.98;100.00
15477;BME280;7840;42.702;23.296;2023-10-09T05:35:55;95837.94;;;13.04;98.23
15477;BME280;7840;42.702;23.296;2023-10-09T05:38:40;95835.44;;;12.97;97.19
15477;BME280;7840;42.702;23.296;2023-10-09T05:41:13;95848.88;;;13.07;95.97
15477;BME280;7840;42.702;23.296;2023-10-09T05:44:13;95847.84;;;13.08;95.92
15477;BME280;7840;42.702;23.296;2023-10-09T05:46:58;95857.69;;;13.08;94.57
15477;BME280;7840;42.702;23.296;2023-10-09T05:49:47;95863.72;;;13.03;93.51
15477;BME280;7840;42.702;23.296;2023-10-09T05:52:22;95869.75;;;13.15;92.39
15477;BME280;7840;42.702;23.296;2023-10-09T05:54:58;95876.00;;;13.21;91.64
15477;BME280;7840;42.702;23.296;2023-10-09T05:58:07;95881.28;;;13.38;89.13
15477;BME280;7840;42.702;23.296;2023-10-09T06:01:06;95882.28;;;13.32;87.90
15477;BME280;7840;42.702;23.296;2023-10-09T06:03:51;95890.16;;;13.44;87.98
15477;BME280;7840;42.702;23.296;2023-10-09T06:06:32;95889.34;;;13.43;85.61
15477;BME280;7840;42.702;23.296;2023-10-09T06:09:09;95882.59;;;13.52;85.25
15477;BME280;7840;42.702;23.296;2023-10-09T06:12:10;95881.53;;;13.53;82.65
15477;BME280;7840;42.702;23.296;2023-10-09T06:14:54;95896.72;;;13.75;80.72
15477;BME280;7840;42.702;23.296;2023-10-09T06:17:44;95911.41;;;13.77;79.72
15477;BME280;7840;42.702;23.296;2023-10-09T06:20:16;95905.28;;;13.77;77.64
15477;BME280;7840;42.702;23.296;2023-10-09T06:23:28;95899.03;;;13.66;76.81
15477;BME280;7840;42.702;23.296;2023-10-09T06:26:09;95899.81;;;13.66;76.77
15477;BME280;7840;42.702;23.296;2023-10-09T06:28:50;95899.16;;;13.76;77.82
15477;BME280;7840;42.702;23.296;2023-10-09T06:31:38;95907.22;;;13.64;77.36
15477;BME280;7840;42.702;23.296;2023-10-09T06:34:19;95913.25;;;13.77;77.21
15477;BME280;7840;42.702;23.296;2023-10-09T06:36:50;95926.66;;;13.82;73.74
15477;BME280;7840;42.702;23.296;2023-10-09T06:39:20;95912.22;;;14.00;72.99
15477;BME280;7840;42.702;23.296;2023-10-09T06:42:10;95904.06;;;14.06;71.10
15477;BME280;7840;42.702;23.296;2023-10-09T06:44:59;95893.28;;;13.96;71.51
15477;BME280;7840;42.702;23.296;2023-10-09T06:47:26;95904.06;;;14.06;70.88
15477;BME280;7840;42.702;23.296;2023-10-09T06:49:54;95917.19;;;14.13;69.28
15477;BME280;7840;42.702;23.296;2023-10-09T06:52:35;95921.22;;;14.37;68.38
15477;BME280;7840;42.702;23.296;2023-10-09T06:55:21;95916.69;;;14.38;67.36
15477;BME280;7840;42.702;23.296;2023-10-09T06:57:59;95923.41;;;14.62;66.55
15477;BME280;7840;42.702;23.296;2023-10-09T07:00:27;95907.41;;;14.62;64.45
15477;BME280;7840;42.702;23.296;2023-10-09T07:03:15;95908.63;;;14.55;64.27
15477;BME280;7840;42.702;23.296;2023-10-09T07:05:45;95898.97;;;14.27;65.24
15477;BME280;7840;42.702;23.296;2023-10-09T07:08:26;95904.19;;;14.16;64.83
15477;BME280;7840;42.702;23.296;2023-10-09T07:11:04;95916.03;;;14.47;65.45
15477;BME280;7840;42.702;23.296;2023-10-09T07:13:46;95924.81;;;14.70;65.04
15477;BME280;7840;42.702;23.296;2023-10-09T07:16:21;95921.38;;;14.74;63.73
15477;BME280;7840;42.702;23.296;2023-10-09T07:18:50;95910.41;;;14.98;62.93
15477;BME280;7840;42.702;23.296;2023-10-09T07:21:21;95911.47;;;15.29;60.56
15477;BME280;7840;42.702;23.296;2023-10-09T07:23:55;95909.41;;;15.09;59.04
15477;BME280;7840;42.702;23.296;2023-10-09T07:26:26;95912.06;;;15.04;58.37
15477;BME280;7840;42.702;23.296;2023-10-09T07:29:05;95912.81;;;14.72;58.79
15477;BME280;7840;42.702;23.296;2023-10-09T07:31:49;95915.75;;;14.98;58.08
15477;BME280;7840;42.702;23.296;2023-10-09T07:34:24;95911.50;;;15.02;58.81
15477;BME280;7840;42.702;23.296;2023-10-09T07:37:20;95912.03;;;14.99;58.06
15477;BME280;7840;42.702;23.296;2023-10-09T07:39:50;95920.78;;;15.26;57.92
15477;BME280;7840;42.702;23.296;2023-10-09T07:42:21;95911.38;;;15.56;55.60
15477;BME280;7840;42.702;23.296;2023-10-09T07:45:00;95899.84;;;15.45;55.77
15477;BME280;7840;42.702;23.296;2023-10-09T07:47:39;95913.22;;;15.50;56.64
15477;BME280;7840;42.702;23.296;2023-10-09T07:50:29;95912.81;;;15.64;54.76
15477;BME280;7840;42.702;23.296;2023-10-09T07:53:05;95908.38;;;15.84;52.66
15477;BME280;7840;42.702;23.296;2023-10-09T07:55:52;95906.22;;;15.76;49.41
15477;BME280;7840;42.702;23.296;2023-10-09T07:58:26;95923.47;;;15.64;49.34
15477;BME280;7840;42.702;23.296;2023-10-09T08:00:54;95905.72;;;15.79;50.46
15477;BME280;7840;42.702;23.296;2023-10-09T08:03:35;95922.09;;;15.93;49.35
15477;BME280;7840;42.702;23.296;2023-10-09T08:06:03;95920.81;;;16.11;47.65
15477;BME280;7840;42.702;23.296;2023-10-09T08:08:50;95923.53;;;16.16;48.33
15477;BME280;7840;42.702;23.296;2023-10-09T08:11:45;95914.44;;;16.17;47.51
15477;BME280;7840;42.702;23.296;2023-10-09T08:14:42;95915.56;;;16.31;47.62
15477;BME280;7840;42.702;23.296;2023-10-09T08:17:11;95914.81;;;16.46;47.13
15477;BME280;7840;42.702;23.296;2023-10-09T08:19:42;95908.91;;;16.44;47.39
15477;BME280;7840;42.702;23.296;2023-10-09T08:22:26;95914.06;;;16.66;46.31
15477;BME280;7840;42.702;23.296;2023-10-09T08:25:18;95914.66;;;16.78;45.96
15477;BME280;7840;42.702;23.296;2023-10-09T08:27:59;95910.31;;;16.57;46.40
15477;BME280;7840;42.702;23.296;2023-10-09T08:30:42;95906.75;;;16.31;46.81
15477;BME280;7840;42.702;23.296;2023-10-09T08:33:16;95895.91;;;16.68;46.80
15477;BME280;7840;42.702;23.296;2023-10-09T08:36:07;95883.88;;;16.71;46.15
15477;BME280;7840;42.702;23.296;2023-10-09T08:38:35;95883.09;;;16.80;45.85
15477;BME280;7840;42.702;23.296;2023-10-09T08:41:10;95883.63;;;16.87;46.10
15477;BME280;7840;42.702;23.296;2023-10-09T08:43:49;95882.56;;;16.93;45.80
15477;BME280;7840;42.702;23.296;2023-10-09T08:46:22;95878.81;;;17.15;45.90
15477;BME280;7840;42.702;23.296;2023-10-09T08:48:52;95867.31;;;17.35;44.47
15477;BME280;7840;42.702;23.296;2023-10-09T08:51:21;95866.81;;;17.02;44.42
15477;BME280;7840;42.702;23.296;2023-10-09T08:53:49;95856.63;;;17.04;44.21
15477;BME280;7840;42.702;23.296;2023-10-09T08:56:19;95870.56;;;17.16;43.14
15477;BME280;7840;42.702;23.296;2023-10-09T08:58:54;95856.59;;;16.94;43.55
15477;BME280;7840;42.702;23.296;2023-10-09T09:01:23;95863.84;;;17.14;43.05
15477;BME280;7840;42.702;23.296;2023-10-09T09:03:52;95854.75;;;16.89;42.87
15477;BME280;7840;42.702;23.296;2023-10-09T09:06:24;95862.78;;;17.25;41.96
15477;BME280;7840;42.702;23.296;2023-10-09T09:08:53;95862.75;;;17.45;40.31
15477;BME280;7840;42.702;23.296;2023-10-09T09:11:25;95863.78;;;17.80;39.77
15477;BME280;7840;42.702;23.296;2023-10-09T09:14:03;95875.06;;;17.46;40.28
15477;BME280;7840;42.702;23.296;2023-10-09T09:16:34;95878.84;;;17.30;41.42
15477;BME280;7840;42.702;23.296;2023-10-09T09:19:04;95873.44;;;17.56;40.82
15477;BME280;7840;42.702;23.296;2023-10-09T09:21:47;95877.19;;;17.60;40.52
15477;BME280;7840;42.702;23.296;2023-10-09T09:24:16;95861.69;;;17.52;40.09
15477;BME280;7840;42.702;23.296;2023-10-09T09:26:54;95862.19;;;17.79;40.45
15477;BME280;7840;42.702;23.296;2023-10-09T09:29:39;95865.38;;;17.91;37.96
15477;BME280;7840;42.702;23.296;2023-10-09T09:32:10;95855.75;;;17.55;38.64
15477;BME280;7840;42.702;23.296;2023-10-09T09:34:45;95858.38;;;17.90;38.93
15477;BME280;7840;42.702;23.296;2023-10-09T09:37:19;95860.69;;;18.22;37.62
15477;BME280;7840;42.702;23.296;2023-10-09T09:39:48;95839.66;;;17.85;38.16
15477;BME280;7840;42.702;23.296;2023-10-09T09:42:18;95842.28;;;18.00;37.48
15477;BME280;7840;42.702;23.296;2023-10-09T09:44:52;95847.47;;;17.46;38.71
15477;BME280;7840;42.702;23.296;2023-10-09T09:47:21;95844.00;;;17.71;39.72
15477;BME280;7840;42.702;23.296;2023-10-09T09:49:53;95841.59;;;18.34;38.28
15477;BME280;7840;42.702;23.296;2023-10-09T09:52:28;95846.25;;;18.63;36.44
15477;BME280;7840;42.702;23.296;2023-10-09T09:55:05;95845.19;;;18.58;35.65
15477;BME280;7840;42.702;23.296;2023-10-09T09:57:34;95831.03;;;17.93;36.56
15477;BME280;7840;42.702;23.296;2023-10-09T10:00:09;95827.50;;;18.52;36.66
15477;BME280;7840;42.702;23.296;2023-10-09T10:02:59;95805.53;;;18.50;34.85
15477;BME280;7840;42.702;23.296;2023-10-09T10:05:29;95814.91;;;18.03;35.23
15477;BME280;7840;42.702;23.296;2023-10-09T10:07:58;95805.69;;;18.25;34.43
15477;BME280;7840;42.702;23.296;2023-10-09T10:10:37;95803.41;;;18.47;34.44
15477;BME280;7840;42.702;23.296;2023-10-09T10:13:54;95803.50;;;18.76;33.82
15477;BME280;7840;42.702;23.296;2023-10-09T10:16:13;95792.50;;;18.78;34.13
15477;BME280;7840;42.702;23.296;2023-10-09T10:18:57;95781.19;;;19.15;30.68
15477;BME280;7840;42.702;23.296;2023-10-09T10:21:48;95774.63;;;18.97;32.94
15477;BME280;7840;42.702;23.296;2023-10-09T10:24:41;95762.75;;;19.56;32.84
15477;BME280;7840;42.702;23.296;2023-10-09T10:27:25;95759.81;;;18.71;33.69
15477;BME280;7840;42.702;23.296;2023-10-09T10:30:28;95754.84;;;18.88;34.87
15477;BME280;7840;42.702;23.296;2023-10-09T10:33:03;95737.88;;;19.46;32.96
15477;BME280;7840;42.702;23.296;2023-10-09T10:35:39;95749.78;;;19.10;32.63
15477;BME280;7840;42.702;23.296;2023-10-09T10:38:28;95735.00;;;19.37;33.08
15477;BME280;7840;42.702;23.296;2023-10-09T10:41:13;95722.00;;;19.49;32.02
15477;BME280;7840;42.702;23.296;2023-10-09T10:43:43;95717.63;;;19.96;32.98
15477;BME280;7840;42.702;23.296;2023-10-09T10:46:25;95722.03;;;20.11;32.69
15477;BME280;7840;42.702;23.296;2023-10-09T10:49:01;95716.63;;;19.92;33.43
15477;BME280;7840;42.702;23.296;2023-10-09T10:51:42;95708.13;;;19.85;33.13
15477;BME280;7840;42.702;23.296;2023-10-09T10:54:23;95706.97;;;19.91;32.70
15477;BME280;7840;42.702;23.296;2023-10-09T10:56:54;95708.59;;;19.44;33.16
15477;BME280;7840;42.702;23.296;2023-10-09T10:59:24;95711.69;;;19.56;33.55
15477;BME280;7840;42.702;23.296;2023-10-09T11:01:52;95698.81;;;20.34;33.29
15477;BME280;7840;42.702;23.296;2023-10-09T11:04:21;95706.47;;;20.45;33.70
15477;BME280;7840;42.702;23.296;2023-10-09T11:07:07;95698.09;;;20.28;33.54
15477;BME280;7840;42.702;23.296;2023-10-09T11:09:47;95697.78;;;20.30;33.42
15477;BME280;7840;42.702;23.296;2023-10-09T11:12:43;95681.75;;;20.06;32.79
15477;BME280;7840;42.702;23.296;2023-10-09T11:15:33;95672.34;;;20.41;32.67
15477;BME280;7840;42.702;23.296;2023-10-09T11:18:21;95671.06;;;20.85;32.09
15477;BME280;7840;42.702;23.296;2023-10-09T11:20:53;95659.03;;;20.31;32.43
15477;BME280;7840;42.702;23.296;2023-10-09T11:23:38;95649.44;;;20.90;32.26
15477;BME280;7840;42.702;23.296;2023-10-09T11:26:19;95640.88;;;21.56;31.92
15477;BME280;7840;42.702;23.296;2023-10-09T11:29:07;95639.19;;;21.19;31.70
15477;BME280;7840;42.702;23.296;2023-10-09T11:32:04;95648.66;;;20.89;31.36
15477;BME280;7840;42.702;23.296;2023-10-09T11:34:33;95650.94;;;20.96;31.57
15477;BME280;7840;42.702;23.296;2023-10-09T11:37:02;95646.69;;;21.50;31.27
15477;BME280;7840;42.702;23.296;2023-10-09T11:39:35;95647.72;;;20.66;31.90
15477;BME280;7840;42.702;23.296;2023-10-09T11:42:04;95646.25;;;20.88;31.48
15477;BME280;7840;42.702;23.296;2023-10-09T11:44:36;95633.53;;;21.35;31.28
15477;BME280;7840;42.702;23.296;2023-10-09T11:47:05;95628.00;;;21.26;30.96
15477;BME280;7840;42.702;23.296;2023-10-09T11:49:57;95636.22;;;21.21;30.79
15477;BME280;7840;42.702;23.296;2023-10-09T11:52:56;95618.47;;;21.83;31.02
15477;BME280;7840;42.702;23.296;2023-10-09T11:55:37;95614.94;;;21.97;29.68
15477;BME280;7840;42.702;23.296;2023-10-09T11:58:05;95608.16;;;21.85;30.14
15477;BME280;7840;42.702;23.296;2023-10-09T12:00:33;95611.22;;;20.60;31.17
15477;BME280;7840;42.702;23.296;2023-10-09T12:03:12;95602.66;;;21.13;31.53
15477;BME280;7840;42.702;23.296;2023-10-09T12:05:41;95589.47;;;21.53;30.50
15477;BME280;7840;42.702;23.296;2023-10-09T12:08:13;95577.69;;;22.07;30.29
15477;BME280;7840;42.702;23.296;2023-10-09T12:10:43;95582.50;;;22.86;29.57
15477;BME280;7840;42.702;23.296;2023-10-09T12:13:14;95570.91;;;22.32;29.44
15477;BME280;7840;42.702;23.296;2023-10-09T12:15:42;95569.63;;;22.61;29.76
15477;BME280;7840;42.702;23.296;2023-10-09T12:18:12;95575.84;;;22.30;28.74
15477;BME280;7840;42.702;23.296;2023-10-09T12:20:42;95563.75;;;22.99;28.10
15477;BME280;7840;42.702;23.296;2023-10-09T12:23:17;95562.03;;;22.94;28.72
15477;BME280;7840;42.702;23.296;2023-10-09T12:25:48;95567.34;;;23.25;28.17
15477;BME280;7840;42.702;23.296;2023-10-09T12:28:15;95560.34;;;23.24;27.52
15477;BME280;7840;42.702;23.296;2023-10-09T12:30:46;95567.53;;;23.46;27.79
15477;BME280;7840;42.702;23.296;2023-10-09T12:33:17;95547.41;;;23.95;27.20
15477;BME280;7840;42.702;23.296;2023-10-09T12:35:46;95544.19;;;23.93;26.78
15477;BME280;7840;42.702;23.296;2023-10-09T12:38:13;95545.75;;;23.60;27.03
15477;BME280;7840;42.702;23.296;2023-10-09T12:40:46;95543.19;;;23.20;27.29
15477;BME280;7840;42.702;23.296;2023-10-09T12:43:18;95538.16;;;22.25;28.09
15477;BME280;7840;42.702;23.296;2023-10-09T12:45:48;95531.13;;;22.47;28.09
15477;BME280;7840;42.702;23.296;2023-10-09T12:48:15;95538.81;;;22.62;28.74
15477;BME280;7840;42.702;23.296;2023-10-09T12:50:43;95532.06;;;23.30;28.05
15477;BME280;7840;42.702;23.296;2023-10-09T12:53:11;95523.97;;;23.56;26.53
15477;BME280;7840;42.702;23.296;2023-10-09T12:55:44;95521.25;;;23.30;27.20
15477;BME280;7840;42.702;23.296;2023-10-09T12:58:13;95521.25;;;24.17;26.80
15477;BME280;7840;42.702;23.296;2023-10-09T13:00:44;95522.34;;;24.33;26.76
15477;BME280;7840;42.702;23.296;2023-10-09T13:03:15;95505.38;;;23.81;26.01
15477;BME280;7840;42.702;23.296;2023-10-09T13:05:48;95504.13;;;23.61;26.32
15477;BME280;7840;42.702;23.296;2023-10-09T13:08:20;95502.63;;;23.20;26.88
15477;BME280;7840;42.702;23.296;2023-10-09T13:10:50;95496.78;;;23.70;26.31
15477;BME280;7840;42.702;23.296;2023-10-09T13:13:28;95490.88;;;23.51;26.00
15477;BME280;7840;42.702;23.296;2023-10-09T13:16:07;95478.31;;;23.89;25.48
15477;BME280;7840;42.702;23.296;2023-10-09T13:18:49;95481.66;;;23.86;25.77
15477;BME280;7840;42.702;23.296;2023-10-09T13:21:23;95484.44;;;24.24;24.95
15477;BME280;7840;42.702;23.296;2023-10-09T13:23:51;95481.38;;;24.43;24.99
15477;BME280;7840;42.702;23.296;2023-10-09T13:26:21;95474.81;;;24.82;23.67
15477;BME280;7840;42.702;23.296;2023-10-09T13:28:56;95471.03;;;24.45;23.83
15477;BME280;7840;42.702;23.296;2023-10-09T13:31:24;95468.94;;;24.42;23.47
15477;BME280;7840;42.702;23.296;2023-10-09T13:33:53;95459.81;;;24.55;23.97
15477;BME280;7840;42.702;23.296;2023-10-09T13:36:22;95464.03;;;24.36;23.78
15477;BME280;7840;42.702;23.296;2023-10-09T13:38:56;95460.88;;;24.63;23.89
15477;BME280;7840;42.702;23.296;2023-10-09T13:41:24;95460.03;;;25.09;23.73